Time;durP1;ratioP1;P1;durP2;ratioP2;P2;SDS_P1;SDS_P2;PMS_P1;PMS_P2;Temp;Humidity;BMP_temperature;BMP_pressure;BME280_temperature;BME280_humidity;BME280_pressure;Samples;Min_cycle;Max_cycle;Signal;HPM_P1;HPM_P2
2023/03/29 00:01:41;;;;;;;4.67;1.87;;;6.50;1.00;;;;;;5097462;28;20205;-59
2023/03/29 00:04:08;;;;;;;3.10;1.60;;;6.40;1.00;;;;;;5097454;28;20203;-59
2023/03/29 00:06:36;;;;;;;4.00;1.93;;;6.50;1.00;;;;;;5096976;28;20228;-59
2023/03/29 00:09:08;;;;;;;5.77;2.00;;;6.60;1.00;;;;;;5097098;28;20216;-60
2023/03/29 00:11:35;;;;;;;3.90;1.80;;;6.50;1.00;;;;;;5097276;28;20231;-59
2023/03/29 00:14:02;;;;;;;3.33;1.70;;;6.50;1.00;;;;;;5095173;28;20289;-59
2023/03/29 00:16:29;;;;;;;4.20;2.10;;;6.50;1.00;;;;;;5100019;28;20268;-59
2023/03/29 00:18:56;;;;;;;3.60;2.00;;;6.50;1.00;;;;;;5094969;28;20233;-60
2023/03/29 00:21:23;;;;;;;4.00;1.70;;;6.60;1.00;;;;;;5094296;28;20199;-59
2023/03/29 00:23:50;;;;;;;5.20;1.90;;;6.60;1.00;;;;;;5096076;28;20203;-59
2023/03/29 00:26:17;;;;;;;5.63;1.73;;;6.50;1.00;;;;;;5096014;28;20288;-59
2023/03/29 00:28:44;;;;;;;2.60;1.90;;;6.50;1.00;;;;;;5093362;28;20226;-59
2023/03/29 00:31:13;;;;;;;2.10;1.40;;;6.60;1.00;;;;;;5097528;28;20833;-59
2023/03/29 00:33:41;;;;;;;3.73;1.83;;;6.50;1.00;;;;;;5100219;28;20292;-59
2023/03/29 00:36:09;;;;;;;3.60;2.00;;;6.50;1.00;;;;;;5093423;28;20537;-59
2023/03/29 00:38:37;;;;;;;2.57;1.70;;;6.50;1.00;;;;;;5095358;28;20294;-58
2023/03/29 00:41:05;;;;;;;6.33;2.17;;;6.50;1.00;;;;;;5099245;28;20241;-59
2023/03/29 00:43:54;;;;;;;6.17;2.23;;;6.50;1.00;;;;;;5100000;28;20286;-59
2023/03/29 00:46:22;;;;;;;3.43;1.97;;;6.50;1.00;;;;;;5099154;28;20207;-59
2023/03/29 00:48:52;;;;;;;4.63;3.03;;;6.60;1.00;;;;;;5101790;28;20228;-59
2023/03/29 00:51:21;;;;;;;2.20;1.90;;;6.60;1.00;;;;;;5100296;28;20234;-59
2023/03/29 00:53:51;;;;;;;6.17;1.87;;;6.50;1.00;;;;;;5100280;28;20309;-59
2023/03/29 00:56:30;;;;;;;4.10;2.30;;;6.60;1.00;;;;;;5095554;28;20292;-61
2023/03/29 00:59:01;;;;;;;3.07;1.97;;;6.50;1.00;;;;;;5101759;28;20277;-59
2023/03/29 01:02:07;;;;;;;3.70;2.17;;;6.50;1.00;;;;;;5101040;27;20680;-63
2023/03/29 01:04:46;;;;;;;3.30;1.90;;;6.50;1.00;;;;;;5100291;28;20741;-59
2023/03/29 01:07:20;;;;;;;5.73;2.40;;;6.60;1.00;;;;;;5102046;28;20679;-62
2023/03/29 01:10:03;;;;;;;4.70;2.60;;;6.60;1.00;;;;;;5100807;28;20697;-59
2023/03/29 01:12:34;;;;;;;3.67;2.17;;;6.60;1.00;;;;;;5096149;28;20209;-59
2023/03/29 01:15:07;;;;;;;5.27;2.10;;;6.60;1.00;;;;;;5099124;28;20215;-59
2023/03/29 01:17:36;;;;;;;3.93;2.10;;;6.60;1.00;;;;;;5100516;28;20331;-59
2023/03/29 01:20:42;;;;;;;6.03;2.30;;;6.60;1.00;;;;;;5099451;28;20194;-58
2023/03/29 01:23:36;;;;;;;6.87;1.90;;;6.70;1.00;;;;;;5098551;28;20387;-59
2023/03/29 01:26:29;;;;;;;4.97;1.90;;;6.60;1.00;;;;;;5099313;28;20205;-59
2023/03/29 01:29:28;;;;;;;3.13;2.17;;;6.60;1.00;;;;;;5097431;28;20244;-59
2023/03/29 01:32:10;;;;;;;3.57;2.17;;;6.70;1.00;;;;;;5099160;28;20204;-59
2023/03/29 01:34:44;;;;;;;3.07;2.10;;;6.60;1.00;;;;;;5096932;28;20227;-59
2023/03/29 01:37:18;;;;;;;6.57;2.10;;;6.70;99.90;;;;;;5099240;28;20215;-59
2023/03/29 01:39:45;;;;;;;3.13;2.10;;;6.70;99.90;;;;;;5100436;28;20251;-59
2023/03/29 01:42:20;;;;;;;2.47;1.80;;;6.70;99.90;;;;;;5097922;28;20326;-59
2023/03/29 01:44:56;;;;;;;4.27;1.87;;;6.70;1.00;;;;;;5095624;28;20236;-59
2023/03/29 01:47:29;;;;;;;4.10;2.23;;;6.70;1.00;;;;;;5098053;28;20596;-59
2023/03/29 01:50:06;;;;;;;5.43;2.90;;;6.70;1.00;;;;;;5099590;28;20202;-59
2023/03/29 01:52:44;;;;;;;3.87;2.37;;;6.70;99.90;;;;;;5098843;28;20202;-59
2023/03/29 01:55:13;;;;;;;3.83;1.87;;;6.70;99.90;;;;;;5098129;28;20647;-59
2023/03/29 01:57:43;;;;;;;5.00;2.00;;;6.70;99.90;;;;;;5099301;28;20222;-58
2023/03/29 02:00:15;;;;;;;4.80;2.20;;;6.70;1.00;;;;;;5098689;28;20346;-59
2023/03/29 02:02:45;;;;;;;10.37;2.40;;;6.80;1.00;;;;;;5100833;28;20236;-59
2023/03/29 02:05:14;;;;;;;2.77;1.97;;;6.70;1.00;;;;;;5099338;28;20206;-62
2023/03/29 02:07:43;;;;;;;4.60;2.20;;;6.80;1.00;;;;;;5100115;28;20249;-59
2023/03/29 02:10:11;;;;;;;2.67;1.83;;;6.80;1.00;;;;;;5100990;28;20271;-60
2023/03/29 02:12:39;;;;;;;4.83;1.93;;;6.80;1.00;;;;;;5098737;28;20228;-59
2023/03/29 02:15:12;;;;;;;2.27;1.70;;;6.80;1.00;;;;;;5098146;28;20691;-59
2023/03/29 02:17:39;;;;;;;4.90;2.07;;;6.80;1.00;;;;;;5091586;28;20637;-59
2023/03/29 02:20:21;;;;;;;5.13;2.30;;;6.90;1.00;;;;;;5098321;28;20198;-59
2023/03/29 02:23:03;;;;;;;2.00;1.80;;;6.80;1.00;;;;;;5098764;28;20261;-59
2023/03/29 02:25:31;;;;;;;2.77;2.00;;;6.80;1.00;;;;;;5097965;28;20202;-59
2023/03/29 02:27:59;;;;;;;7.00;2.97;;;6.80;1.00;;;;;;5098396;28;20211;-59
2023/03/29 02:30:32;;;;;;;5.47;2.50;;;6.90;1.00;;;;;;5097777;28;20570;-60
2023/03/29 02:33:13;;;;;;;4.33;2.20;;;6.90;1.00;;;;;;5097517;28;20297;-59
2023/03/29 02:35:48;;;;;;;2.93;2.10;;;6.80;1.00;;;;;;5095449;28;20280;-59
2023/03/29 02:38:17;;;;;;;2.70;1.90;;;6.90;1.00;;;;;;5099565;28;20291;-59
2023/03/29 02:40:45;;;;;;;5.30;2.13;;;7.00;1.00;;;;;;5099367;28;20203;-59
2023/03/29 02:43:14;;;;;;;4.43;2.43;;;6.80;99.90;;;;;;5099804;28;20197;-59
2023/03/29 02:45:42;;;;;;;5.33;2.30;;;6.90;99.90;;;;;;5113054;27;20236;-59
2023/03/29 02:48:15;;;;;;;5.57;2.50;;;6.90;99.90;;;;;;5099152;28;20227;-61
2023/03/29 02:50:46;;;;;;;3.10;2.13;;;6.90;99.90;;;;;;5098643;27;20211;-59
2023/03/29 02:53:21;;;;;;;3.53;2.10;;;7.10;1.00;;;;;;5096898;28;20571;-59
2023/03/29 02:55:48;;;;;;;2.80;1.83;;;7.00;1.00;;;;;;5089316;28;20260;-59
2023/03/29 02:58:16;;;;;;;4.33;1.87;;;7.00;1.00;;;;;;5098112;28;20206;-62
2023/03/29 03:00:47;;;;;;;2.90;1.90;;;7.10;1.00;;;;;;5097719;28;20207;-59
2023/03/29 03:03:14;;;;;;;2.60;1.87;;;7.10;1.00;;;;;;5098477;28;20213;-59
2023/03/29 03:05:42;;;;;;;1.93;1.77;;;7.10;99.90;;;;;;5096168;28;20202;-59
2023/03/29 03:08:09;;;;;;;4.30;1.80;;;7.10;99.90;;;;;;5098565;28;20612;-59
2023/03/29 03:10:36;;;;;;;3.17;1.63;;;7.30;99.90;;;;;;5095255;28;20680;-59
2023/03/29 03:13:03;;;;;;;2.63;1.93;;;7.10;1.00;;;;;;5095291;28;20281;-59
2023/03/29 03:15:31;;;;;;;3.40;1.50;;;7.10;99.20;;;;;;5095473;28;20233;-59
2023/03/29 03:17:59;;;;;;;2.87;1.80;;;7.10;99.90;;;;;;5099207;28;20225;-60
2023/03/29 03:20:26;;;;;;;2.73;1.53;;;7.10;1.00;;;;;;5097152;28;20201;-59
2023/03/29 03:22:53;;;;;;;9.33;2.00;;;7.10;1.00;;;;;;5097753;28;20286;-63
2023/03/29 03:25:20;;;;;;;3.60;1.63;;;7.30;1.00;;;;;;5098715;28;20225;-59
2023/03/29 03:27:48;;;;;;;3.27;2.00;;;7.30;1.00;;;;;;5096940;28;20209;-59
2023/03/29 03:30:16;;;;;;;5.23;1.87;;;7.40;1.00;;;;;;5095891;28;20199;-59
2023/03/29 03:32:43;;;;;;;5.07;1.40;;;7.20;1.00;;;;;;5096565;28;20208;-59
2023/03/29 03:35:11;;;;;;;4.07;2.40;;;7.30;1.00;;;;;;5096283;28;20201;-59
2023/03/29 03:37:38;;;;;;;2.27;1.60;;;7.40;1.00;;;;;;5097197;28;20304;-59
2023/03/29 03:40:07;;;;;;;4.63;1.97;;;7.30;1.00;;;;;;5098170;28;20261;-59
2023/03/29 03:42:34;;;;;;;3.37;2.17;;;7.30;1.00;;;;;;5094785;28;20591;-63
2023/03/29 03:45:01;;;;;;;4.43;2.30;;;7.30;1.00;;;;;;5095583;28;20291;-59
2023/03/29 03:47:29;;;;;;;2.73;1.70;;;7.40;99.90;;;;;;5097363;28;20681;-60
2023/03/29 03:49:56;;;;;;;3.73;1.90;;;7.40;99.90;;;;;;5097743;28;20301;-59
2023/03/29 03:52:23;;;;;;;2.90;1.50;;;7.40;99.90;;;;;;5097882;28;20205;-59
2023/03/29 03:54:50;;;;;;;3.60;2.20;;;7.40;99.90;;;;;;5095655;28;20251;-59
2023/03/29 03:57:17;;;;;;;3.67;1.60;;;7.40;99.90;;;;;;5098525;28;20570;-59
2023/03/29 03:59:44;;;;;;;6.17;2.07;;;7.40;99.90;;;;;;5094202;28;20233;-59
2023/03/29 04:02:11;;;;;;;3.13;2.20;;;7.40;99.90;;;;;;5095897;28;20233;-59
2023/03/29 04:04:39;;;;;;;5.03;1.77;;;7.40;99.90;;;;;;5094785;28;20216;-59
2023/03/29 04:07:06;;;;;;;3.10;2.07;;;7.40;99.90;;;;;;5093663;28;20200;-59
2023/03/29 04:09:34;;;;;;;3.00;1.90;;;7.40;99.90;;;;;;5100158;28;20203;-59
2023/03/29 04:12:00;;;;;;;4.77;2.20;;;7.40;99.90;;;;;;5101422;28;20207;-60
2023/03/29 04:14:27;;;;;;;4.13;2.10;;;7.40;99.90;;;;;;5098926;28;20210;-59
2023/03/29 04:16:54;;;;;;;3.77;2.17;;;7.40;99.90;;;;;;5099081;28;20204;-59
2023/03/29 04:19:21;;;;;;;4.33;2.20;;;7.40;99.90;;;;;;5099510;28;20689;-59
2023/03/29 04:21:50;;;;;;;3.27;2.00;;;7.50;99.90;;;;;;5100807;28;20200;-59
2023/03/29 04:24:16;;;;;;;3.97;2.13;;;7.50;99.90;;;;;;5099275;28;20191;-59
2023/03/29 04:26:43;;;;;;;4.10;2.10;;;7.50;99.90;;;;;;5102196;28;20193;-59
2023/03/29 04:29:10;;;;;;;3.23;1.80;;;7.50;99.90;;;;;;5100079;28;20219;-59
2023/03/29 04:31:37;;;;;;;5.40;1.80;;;7.50;99.90;;;;;;5091909;28;20294;-59
2023/03/29 04:34:04;;;;;;;4.27;2.30;;;7.50;99.90;;;;;;5099431;28;20743;-61
2023/03/29 04:36:31;;;;;;;6.40;2.30;;;7.50;99.90;;;;;;5097753;28;20554;-60
2023/03/29 04:39:00;;;;;;;5.33;2.20;;;7.50;99.90;;;;;;5099125;28;20225;-59
2023/03/29 04:41:27;;;;;;;2.47;1.90;;;7.60;99.90;;;;;;5098644;28;20223;-59
2023/03/29 04:43:54;;;;;;;4.53;2.20;;;7.60;99.90;;;;;;5091804;28;20208;-59
2023/03/29 04:46:25;;;;;;;2.80;2.10;;;7.60;99.90;;;;;;5099530;28;20240;-60
2023/03/29 04:48:53;;;;;;;3.23;2.37;;;7.60;99.90;;;;;;5099229;28;20206;-59
2023/03/29 04:51:21;;;;;;;2.90;1.77;;;7.50;99.90;;;;;;5096133;28;20294;-59
2023/03/29 04:53:49;;;;;;;4.77;1.70;;;7.60;99.90;;;;;;5099022;28;20206;-59
2023/03/29 04:56:17;;;;;;;3.07;2.10;;;7.50;99.90;;;;;;5098840;28;22691;-60
2023/03/29 04:58:44;;;;;;;4.10;1.80;;;7.60;99.90;;;;;;5098394;28;20222;-59
2023/03/29 05:01:11;;;;;;;8.07;2.40;;;7.60;99.90;;;;;;5100349;28;20282;-59
2023/03/29 05:03:38;;;;;;;2.83;1.87;;;7.60;99.90;;;;;;5101113;28;20229;-61
2023/03/29 05:06:07;;;;;;;5.20;2.57;;;7.60;99.90;;;;;;5097652;28;20254;-59
2023/03/29 05:08:38;;;;;;;4.93;2.10;;;7.70;99.90;;;;;;5100876;28;20255;-59
2023/03/29 05:11:09;;;;;;;2.67;1.97;;;7.70;99.90;;;;;;5099333;28;20206;-62
2023/03/29 05:13:36;;;;;;;5.23;2.17;;;7.70;99.90;;;;;;5100063;28;20551;-59
2023/03/29 05:16:04;;;;;;;3.13;1.90;;;7.80;99.90;;;;;;5099488;28;20209;-59
2023/03/29 05:18:31;;;;;;;2.97;2.40;;;7.80;99.90;;;;;;5097922;28;20314;-59
2023/03/29 05:20:58;;;;;;;3.80;2.20;;;7.70;99.90;;;;;;5100071;28;20784;-59
2023/03/29 05:23:26;;;;;;;5.77;1.97;;;7.70;99.90;;;;;;5099988;28;20652;-62
2023/03/29 05:25:53;;;;;;;4.00;1.90;;;7.70;99.90;;;;;;5099676;28;20611;-59
2023/03/29 05:28:20;;;;;;;2.80;1.93;;;7.80;99.90;;;;;;5099255;28;20692;-59
2023/03/29 05:30:58;;;;;;;5.03;2.30;;;7.80;99.90;;;;;;5099254;28;20637;-59
2023/03/29 05:33:26;;;;;;;4.47;2.00;;;7.80;99.90;;;;;;5099357;28;20222;-65
2023/03/29 05:36:06;;;;;;;4.23;2.30;;;7.80;99.90;;;;;;5097823;28;20251;-59
2023/03/29 05:38:34;;;;;;;5.53;2.30;;;7.80;99.90;;;;;;5099917;28;20214;-59
2023/03/29 05:41:02;;;;;;;3.80;2.47;;;7.80;99.90;;;;;;5101325;28;20354;-59
2023/03/29 05:43:29;;;;;;;6.13;3.00;;;7.80;99.90;;;;;;5098214;28;21085;-59
2023/03/29 05:45:56;;;;;;;4.67;2.10;;;7.90;99.90;;;;;;5096407;28;20753;-59
2023/03/29 05:48:23;;;;;;;2.87;2.53;;;7.90;99.90;;;;;;5100038;28;20213;-59
2023/03/29 05:50:53;;;;;;;5.20;2.57;;;7.90;99.90;;;;;;5100541;28;21084;-60
2023/03/29 05:53:22;;;;;;;5.37;2.43;;;7.90;99.90;;;;;;5100444;28;20195;-59
2023/03/29 05:55:50;;;;;;;5.00;3.20;;;8.00;99.90;;;;;;5099676;28;20238;-62
2023/03/29 05:58:17;;;;;;;8.03;2.23;;;8.00;99.90;;;;;;5097562;28;20662;-59
2023/03/29 06:00:45;;;;;;;4.40;2.17;;;8.00;99.90;;;;;;5088047;28;20209;-59
2023/03/29 06:03:17;;;;;;;6.77;2.60;;;8.00;99.90;;;;;;5100031;28;20720;-63
2023/03/29 06:05:53;;;;;;;4.50;2.60;;;8.10;99.90;;;;;;5097751;28;20626;-60
2023/03/29 06:08:21;;;;;;;3.93;2.13;;;8.10;99.90;;;;;;5098624;28;20210;-60
2023/03/29 06:10:49;;;;;;;3.67;2.30;;;8.00;99.90;;;;;;5098713;28;20199;-60
2023/03/29 06:13:16;;;;;;;4.13;2.70;;;8.10;99.90;;;;;;5098521;28;20292;-59
2023/03/29 06:15:43;;;;;;;4.57;2.00;;;8.10;99.90;;;;;;5098910;28;20205;-59
2023/03/29 06:18:11;;;;;;;4.23;2.40;;;8.20;99.90;;;;;;5098588;28;20228;-59
2023/03/29 06:20:38;;;;;;;6.83;2.40;;;8.10;99.90;;;;;;5098698;28;20210;-59
2023/03/29 06:23:04;;;;;;;4.67;2.70;;;8.20;99.90;;;;;;5098208;28;20810;-59
2023/03/29 06:25:32;;;;;;;6.90;2.97;;;8.20;99.90;;;;;;5097794;28;20240;-58
2023/03/29 06:28:00;;;;;;;4.70;2.70;;;8.20;99.90;;;;;;5098620;28;20241;-59
2023/03/29 06:30:27;;;;;;;7.80;2.40;;;8.30;99.90;;;;;;5098523;28;20280;-59
2023/03/29 06:32:54;;;;;;;5.03;2.50;;;8.30;99.90;;;;;;5093166;28;20729;-61
2023/03/29 06:35:21;;;;;;;4.80;2.50;;;8.30;99.90;;;;;;5095354;28;20638;-59
2023/03/29 06:37:52;;;;;;;6.03;2.60;;;8.30;99.90;;;;;;5095842;28;20228;-59
2023/03/29 06:40:23;;;;;;;4.03;2.87;;;8.30;99.90;;;;;;5093930;28;20227;-62
2023/03/29 06:42:56;;;;;;;3.40;2.43;;;8.40;99.90;;;;;;5095341;28;20209;-59
2023/03/29 06:45:25;;;;;;;3.33;2.60;;;8.40;99.90;;;;;;5107279;27;20638;-63
2023/03/29 06:47:55;;;;;;;3.20;2.47;;;8.40;99.90;;;;;;5093129;28;20190;-59
2023/03/29 06:50:22;;;;;;;8.23;3.17;;;8.40;99.90;;;;;;4734571;28;10000005;-59
2023/03/29 06:52:49;;;;;;;4.20;2.80;;;8.50;99.90;;;;;;5081452;28;20290;-59
2023/03/29 06:55:17;;;;;;;4.90;2.80;;;8.60;99.90;;;;;;5092379;28;20270;-60
2023/03/29 06:57:44;;;;;;;5.77;2.60;;;8.60;99.90;;;;;;5092728;28;20254;-60
2023/03/29 07:00:18;;;;;;;3.13;2.23;;;8.60;99.90;;;;;;5094247;28;20246;-59
2023/03/29 07:02:46;;;;;;;4.13;2.63;;;8.60;99.90;;;;;;5087603;27;20236;-60
2023/03/29 07:05:13;;;;;;;5.47;2.53;;;8.80;99.90;;;;;;5068252;28;20661;-59
2023/03/29 07:10:38;;;;;;;8.67;3.03;;;8.80;99.90;;;;;;5086970;27;20314;-60
2023/03/29 07:13:06;;;;;;;5.03;2.50;;;8.80;99.90;;;;;;5078242;28;20206;-65
2023/03/29 07:15:33;;;;;;;5.90;2.87;;;8.90;1.00;;;;;;5093748;28;20242;-60
2023/03/29 07:18:02;;;;;;;9.67;3.33;;;8.90;99.90;;;;;;5095261;28;20228;-59
2023/03/29 07:20:30;;;;;;;5.03;2.83;;;9.00;99.90;;;;;;5096117;28;20283;-59
2023/03/29 07:22:57;;;;;;;4.50;2.47;;;9.00;99.90;;;;;;5082487;28;20296;-61
2023/03/29 07:25:25;;;;;;;6.53;2.90;;;9.00;99.90;;;;;;5090784;28;20572;-61
2023/03/29 07:27:52;;;;;;;5.47;3.27;;;9.10;99.90;;;;;;5088808;28;20206;-60
2023/03/29 07:30:21;;;;;;;7.10;3.40;;;9.10;99.90;;;;;;5086513;28;20301;-59
2023/03/29 07:32:49;;;;;;;5.07;2.93;;;9.10;1.00;;;;;;5097404;28;20263;-59
2023/03/29 07:35:17;;;;;;;5.90;2.67;;;9.10;1.00;;;;;;5080012;28;20695;-60
2023/03/29 07:37:45;;;;;;;5.90;3.20;;;9.10;99.90;;;;;;5095711;28;20194;-59
2023/03/29 07:40:22;;;;;;;5.10;3.10;;;9.10;99.90;;;;;;5092016;28;20222;-63
2023/03/29 07:42:54;;;;;;;5.60;2.90;;;9.20;99.90;;;;;;5087965;28;20220;-60
2023/03/29 07:45:23;;;;;;;5.73;3.47;;;9.20;99.90;;;;;;5063744;28;20200;-62
2023/03/29 07:47:56;;;;;;;4.53;3.17;;;9.20;1.00;;;;;;5089839;28;20198;-59
2023/03/29 07:50:24;;;;;;;7.70;3.30;;;9.20;99.90;;;;;;5086257;28;20842;-60
2023/03/29 07:52:52;;;;;;;6.67;3.23;;;9.20;1.00;;;;;;5082135;28;20209;-59
2023/03/29 07:55:19;;;;;;;6.50;3.00;;;9.20;1.00;;;;;;5089738;28;20242;-59
2023/03/29 07:57:47;;;;;;;4.07;3.07;;;9.20;1.00;;;;;;5093002;28;20197;-59
2023/03/29 08:00:14;;;;;;;5.60;3.07;;;9.20;1.00;;;;;;5088991;28;20221;-60
2023/03/29 08:02:44;;;;;;;6.03;3.20;;;9.30;1.00;;;;;;5076419;28;20221;-60
2023/03/29 08:05:13;;;;;;;6.47;3.60;;;9.30;1.00;;;;;;5092175;28;20203;-59
2023/03/29 08:07:41;;;;;;;5.07;3.40;;;9.30;1.00;;;;;;5090834;28;20245;-59
2023/03/29 08:10:10;;;;;;;5.53;3.47;;;9.40;1.00;;;;;;5093530;28;20309;-59
2023/03/29 08:12:37;;;;;;;5.27;3.47;;;9.30;1.00;;;;;;5092989;28;20204;-59
2023/03/29 08:15:05;;;;;;;5.33;3.67;;;9.30;82.40;;;;;;5093393;28;20201;-60
2023/03/29 08:17:33;;;;;;;6.63;3.83;;;9.30;98.80;;;;;;5090671;28;20209;-59
2023/03/29 08:20:01;;;;;;;6.53;3.40;;;9.30;99.90;;;;;;5092565;28;20240;-59
2023/03/29 08:22:28;;;;;;;6.53;3.30;;;9.30;99.90;;;;;;5092828;28;20284;-60
2023/03/29 08:24:55;;;;;;;6.67;3.40;;;9.30;1.00;;;;;;5093746;28;20209;-60
2023/03/29 08:27:22;;;;;;;6.07;3.50;;;9.40;1.00;;;;;;5094266;28;20606;-59
2023/03/29 08:29:48;;;;;;;5.37;3.87;;;9.50;1.00;;;;;;5092811;28;20229;-60
2023/03/29 08:32:16;;;;;;;8.77;3.83;;;9.60;1.00;;;;;;5094667;28;20293;-59
2023/03/29 08:34:43;;;;;;;4.40;3.47;;;9.60;1.00;;;;;;5075734;28;20278;-60
2023/03/29 08:37:09;;;;;;;5.47;3.57;;;9.70;1.00;;;;;;5092684;28;20764;-59
2023/03/29 08:39:36;;;;;;;7.67;4.27;;;9.80;1.00;;;;;;5092690;28;20229;-62
2023/03/29 08:42:18;;;;;;;6.40;3.60;;;10.00;1.00;;;;;;5092921;28;20207;-59
2023/03/29 08:45:21;;;;;;;6.57;3.57;;;10.10;1.00;;;;;;5091440;28;20311;-60
2023/03/29 08:48:01;;;;;;;7.40;3.83;;;10.10;1.00;;;;;;5045576;28;20281;-60
2023/03/29 08:50:38;;;;;;;10.73;3.50;;;10.20;1.00;;;;;;5090379;28;20204;-60
2023/03/29 08:53:30;;;;;;;6.13;3.53;;;10.20;1.00;;;;;;5093445;28;20268;-60
2023/03/29 08:56:00;;;;;;;6.83;3.70;;;10.30;1.00;;;;;;5076744;28;20245;-59
2023/03/29 08:58:31;;;;;;;6.23;3.70;;;10.40;1.00;;;;;;5095768;28;20248;-59
2023/03/29 09:01:02;;;;;;;7.43;3.90;;;10.40;1.00;;;;;;5103902;28;20198;-59
2023/03/29 09:03:49;;;;;;;6.87;4.20;;;10.40;1.00;;;;;;5092279;28;20204;-61
2023/03/29 09:06:20;;;;;;;6.90;3.63;;;10.50;1.00;;;;;;5091726;28;20207;-59
2023/03/29 09:08:51;;;;;;;9.50;4.50;;;10.50;1.00;;;;;;5103876;28;20204;-59
2023/03/29 09:11:24;;;;;;;7.93;4.37;;;10.60;1.00;;;;;;5099441;28;20252;-61
2023/03/29 09:14:07;;;;;;;7.70;3.93;;;10.80;1.00;;;;;;5100701;28;20234;-59
2023/03/29 09:17:11;;;;;;;4.47;3.50;;;10.80;1.00;;;;;;5098981;28;20198;-59
2023/03/29 09:19:56;;;;;;;5.80;4.40;;;11.00;1.00;;;;;;5100117;28;20721;-59
2023/03/29 09:23:05;;;;;;;6.37;4.27;;;11.00;1.00;;;;;;5099302;28;20231;-59
2023/03/29 09:25:35;;;;;;;6.30;4.20;;;11.00;1.00;;;;;;5092281;27;20216;-61
2023/03/29 09:28:34;;;;;;;7.47;4.40;;;11.10;1.00;;;;;;5099974;28;20204;-59
2023/03/29 09:31:17;;;;;;;6.63;4.10;;;11.10;1.00;;;;;;5101636;28;20241;-59
2023/03/29 09:34:12;;;;;;;7.03;3.83;;;11.40;1.00;;;;;;5099832;28;20212;-60
2023/03/29 09:36:52;;;;;;;6.43;4.33;;;11.30;1.00;;;;;;5097856;28;20247;-62
2023/03/29 09:39:21;;;;;;;9.10;4.57;;;11.30;1.00;;;;;;5099036;28;20236;-59
2023/03/29 09:42:11;;;;;;;7.23;5.33;;;11.20;1.00;;;;;;5095770;28;20246;-60
2023/03/29 09:44:46;;;;;;;8.43;5.60;;;11.20;18.60;;;;;;5097524;28;20271;-59
2023/03/29 09:47:19;;;;;;;7.77;5.03;;;11.30;99.90;;;;;;5095755;28;20293;-59
2023/03/29 09:49:49;;;;;;;10.53;5.80;;;11.20;99.90;;;;;;5099092;28;20293;-59
2023/03/29 09:52:18;;;;;;;9.53;5.83;;;11.10;1.00;;;;;;5097127;28;20216;-59
2023/03/29 09:54:45;;;;;;;8.63;6.37;;;11.00;99.90;;;;;;5092534;28;20935;-59
2023/03/29 09:57:15;;;;;;;10.10;5.73;;;10.90;1.00;;;;;;5098273;28;20204;-60
2023/03/29 09:59:45;;;;;;;9.60;6.50;;;10.90;1.00;;;;;;5096676;28;20214;-59
2023/03/29 10:02:13;;;;;;;12.17;7.43;;;10.70;1.00;;;;;;5095484;28;20215;-59
2023/03/29 10:04:41;;;;;;;11.40;7.33;;;10.80;1.00;;;;;;5097585;28;20684;-62
2023/03/29 10:07:19;;;;;;;15.93;7.93;;;10.90;1.00;;;;;;5095947;28;20201;-60
2023/03/29 10:09:50;;;;;;;7.70;6.07;;;11.10;1.00;;;;;;5099596;28;20198;-60
2023/03/29 10:12:19;;;;;;;9.97;5.77;;;11.00;99.90;;;;;;5098398;28;20251;-60
2023/03/29 10:14:52;;;;;;;12.30;6.20;;;11.20;1.00;;;;;;5099068;28;20204;-59
2023/03/29 10:17:26;;;;;;;9.07;6.30;;;11.10;99.90;;;;;;5096031;28;20219;-59
2023/03/29 10:20:00;;;;;;;9.33;6.23;;;11.00;1.00;;;;;;5096241;28;20217;-60
2023/03/29 10:22:39;;;;;;;10.50;6.40;;;10.80;1.00;;;;;;5095970;28;20208;-59
2023/03/29 10:25:15;;;;;;;10.63;7.00;;;10.90;1.00;;;;;;5098746;27;20651;-60
2023/03/29 10:27:45;;;;;;;9.27;6.30;;;10.80;1.00;;;;;;5092499;28;20236;-59
2023/03/29 10:30:20;;;;;;;9.63;5.47;;;10.80;1.00;;;;;;5093203;28;20226;-59
2023/03/29 10:32:55;;;;;;;14.60;6.60;;;10.70;1.00;;;;;;5094233;28;20209;-59
2023/03/29 10:35:32;;;;;;;10.63;7.03;;;10.80;1.00;;;;;;5095995;28;20201;-59
2023/03/29 10:38:02;;;;;;;8.97;6.40;;;10.90;1.00;;;;;;5094327;28;20207;-59
2023/03/29 10:40:32;;;;;;;8.47;6.87;;;10.80;91.20;;;;;;5096515;28;20212;-59
2023/03/29 10:43:23;;;;;;;11.70;6.17;;;10.90;99.90;;;;;;5095839;28;20642;-59
2023/03/29 10:46:03;;;;;;;12.27;5.93;;;11.00;99.90;;;;;;5085015;28;20865;-60
2023/03/29 10:48:33;;;;;;;10.03;5.87;;;11.00;1.00;;;;;;5090821;28;20197;-59
2023/03/29 10:51:01;;;;;;;9.63;5.80;;;11.00;1.00;;;;;;5096684;28;20740;-60
2023/03/29 10:53:31;;;;;;;8.77;6.30;;;11.10;1.00;;;;;;5092041;28;20251;-60
2023/03/29 10:56:17;;;;;;;9.13;7.03;;;11.10;1.00;;;;;;5095508;28;20328;-60
2023/03/29 10:58:50;;;;;;;9.63;6.83;;;10.90;99.90;;;;;;5096697;27;20221;-60
2023/03/29 11:01:39;;;;;;;10.97;6.30;;;11.10;99.90;;;;;;5094422;28;20263;-60
2023/03/29 11:04:18;;;;;;;12.83;7.57;;;11.20;1.00;;;;;;5094059;28;20280;-59
2023/03/29 11:06:48;;;;;;;10.17;6.80;;;11.10;1.00;;;;;;5077227;28;20208;-60
2023/03/29 11:09:38;;;;;;;8.30;6.37;;;11.30;1.00;;;;;;5095476;28;20211;-60
2023/03/29 11:12:23;;;;;;;13.73;6.47;;;11.30;1.00;;;;;;5098146;28;20209;-60
2023/03/29 11:15:15;;;;;;;10.23;6.47;;;11.20;99.90;;;;;;5091875;28;20240;-59
2023/03/29 11:18:05;;;;;;;9.17;6.77;;;11.20;1.00;;;;;;5090167;28;20843;-59
2023/03/29 11:20:44;;;;;;;9.20;6.37;;;11.40;1.00;;;;;;5094735;28;20246;-59
2023/03/29 11:23:30;;;;;;;10.03;7.30;;;11.40;1.00;;;;;;5094935;28;20565;-59
2023/03/29 11:25:57;;;;;;;11.60;6.70;;;11.50;1.00;;;;;;5097266;28;20642;-59
2023/03/29 11:28:55;;;;;;;8.30;5.83;;;11.60;1.00;;;;;;5094560;28;20202;-59
2023/03/29 11:31:40;;;;;;;9.73;7.67;;;11.90;99.90;;;;;;5094104;28;20584;-59
2023/03/29 11:34:30;;;;;;;10.47;6.57;;;12.00;99.90;;;;;;5095597;28;20299;-60
2023/03/29 11:37:08;;;;;;;8.53;6.30;;;12.20;1.00;;;;;;5094734;28;20215;-60
2023/03/29 11:39:44;;;;;;;9.20;6.60;;;12.10;1.00;;;;;;5094266;28;20249;-60
2023/03/29 11:42:17;;;;;;;7.80;6.07;;;12.10;1.00;;;;;;5095355;28;20198;-62
2023/03/29 11:44:47;;;;;;;10.10;6.13;;;12.20;1.00;;;;;;5094674;28;20716;-59
2023/03/29 11:47:21;;;;;;;8.23;6.10;;;12.40;1.00;;;;;;5097366;28;20197;-61
2023/03/29 11:49:53;;;;;;;6.90;5.17;;;12.50;1.00;;;;;;5096457;28;20274;-59
2023/03/29 11:52:36;;;;;;;7.87;5.90;;;12.50;1.00;;;;;;5094083;28;20257;-60
2023/03/29 11:55:14;;;;;;;8.57;6.27;;;12.50;1.00;;;;;;5090290;28;20328;-58
2023/03/29 11:57:59;;;;;;;10.03;7.00;;;12.50;1.00;;;;;;5096615;28;20201;-59
2023/03/29 12:00:26;;;;;;;8.77;5.93;;;12.40;99.90;;;;;;5094240;28;20742;-60
2023/03/29 12:03:08;;;;;;;9.47;6.77;;;12.40;1.00;;;;;;5076349;28;20635;-59
2023/03/29 12:05:57;;;;;;;9.57;6.87;;;12.40;1.00;;;;;;5082716;28;20198;-59
2023/03/29 12:08:36;;;;;;;8.50;6.20;;;12.40;1.00;;;;;;5092226;28;20198;-59
2023/03/29 12:11:19;;;;;;;8.27;5.70;;;12.40;1.00;;;;;;5066727;28;20205;-59
2023/03/29 12:14:08;;;;;;;9.23;5.30;;;12.40;99.90;;;;;;5095147;28;20252;-59
2023/03/29 12:17:00;;;;;;;6.97;5.80;;;12.40;1.00;;;;;;5094026;28;20213;-59
2023/03/29 12:19:40;;;;;;;7.10;6.30;;;12.50;1.00;;;;;;5090073;28;20233;-59
2023/03/29 12:22:09;;;;;;;10.33;5.93;;;12.50;99.90;;;;;;5094159;28;20281;-59
2023/03/29 12:24:40;;;;;;;9.83;5.43;;;12.80;99.90;;;;;;5096207;28;20231;-61
2023/03/29 12:27:30;;;;;;;10.40;5.37;;;13.00;1.00;;;;;;5102748;28;20636;-60
2023/03/29 12:30:22;;;;;;;7.60;5.23;;;13.00;1.00;;;;;;5099876;28;20285;-60
2023/03/29 12:33:28;;;;;;;9.90;5.67;;;13.00;1.00;;;;;;5094067;28;20241;-61
2023/03/29 12:36:15;;;;;;;8.47;5.27;;;13.00;1.00;;;;;;5098419;28;20868;-59
2023/03/29 12:38:44;;;;;;;5.70;4.93;;;13.10;99.90;;;;;;5098392;28;20263;-59
2023/03/29 12:41:20;;;;;;;5.90;4.67;;;13.20;99.90;;;;;;5097612;28;20285;-59
2023/03/29 12:43:48;;;;;;;6.13;4.57;;;13.40;29.90;;;;;;5096576;28;20202;-60
2023/03/29 12:46:31;;;;;;;8.20;5.00;;;13.40;1.00;;;;;;5097959;28;20235;-60
2023/03/29 12:49:43;;;;;;;7.70;4.77;;;13.60;1.00;;;;;;5099639;28;20202;-59
2023/03/29 12:52:30;;;;;;;5.70;4.60;;;13.60;1.00;;;;;;5097351;27;20621;-59
2023/03/29 12:55:30;;;;;;;7.53;4.27;;;13.60;1.00;;;;;;5096472;28;20745;-59
2023/03/29 12:58:22;;;;;;;8.87;4.47;;;13.60;1.00;;;;;;5095010;28;20199;-60
2023/03/29 13:01:04;;;;;;;10.27;4.23;;;13.80;1.00;;;;;;5098265;27;20213;-59
2023/03/29 13:03:47;;;;;;;6.73;4.33;;;13.90;1.00;;;;;;5098826;28;20256;-59
2023/03/29 13:06:31;;;;;;;4.43;3.47;;;14.10;1.00;;;;;;5069922;28;20198;-60
2023/03/29 13:09:19;;;;;;;3.80;3.40;;;14.20;99.90;;;;;;5096994;28;20293;-60
2023/03/29 13:12:09;;;;;;;4.43;3.57;;;14.20;99.90;;;;;;5095458;28;20244;-62
2023/03/29 13:14:41;;;;;;;5.73;3.87;;;14.20;99.90;;;;;;5096837;28;20209;-61
2023/03/29 13:17:20;;;;;;;5.33;3.80;;;14.30;99.90;;;;;;5097195;28;20201;-60
2023/03/29 13:19:50;;;;;;;4.67;3.70;;;14.40;99.90;;;;;;5088444;28;20205;-59
2023/03/29 13:22:30;;;;;;;5.43;3.90;;;14.30;91.10;;;;;;5089034;28;20568;-64
2023/03/29 13:25:23;;;;;;;6.77;3.77;;;14.30;1.00;;;;;;5059812;28;22672;-59
2023/03/29 13:28:00;;;;;;;3.70;3.40;;;14.20;99.90;;;;;;5088438;28;20206;-59
2023/03/29 13:30:58;;;;;;;5.43;3.53;;;14.20;99.90;;;;;;5084548;28;20289;-60
2023/03/29 13:33:43;;;;;;;7.77;3.87;;;14.30;99.90;;;;;;5096986;28;20210;-60